Pagrindinis puslapis
METAR-TAF:

METAR-TAF

Oro uostai :

Vilnius, Lietuva

Tarptautinis Vilniaus oro uostas

platuma: 54-38N, ilguma: 025-06E, Aukštis: 162 m

Dabartinis oras

Ataskaita buvo paskelbta 33 minutes, ne 01:50 UTC
Vėjas 7 kt iš Rytų/Šiaurės Rytų
Temperatūra -1°C
Drėgmė 93%
Slėgis 1025 hPa
Matomumas 10 km arba daugiau
Su prošvaistėmis ne aukštis 4200 ft

METAR: EYVI 240150Z 07007KT 9999 BKN042 M01/M02 Q1025 NOSIG

Laikas: 05:23 (02:23 UTC)

Prognozė

Ataskaita buvo paskelbta 3 valandos ir 23 minutes, ne 23:00 UTC
Prognozė galioja nuo 24 metu 00 UTC su 24 metu 24 UTC
Vėjas 10 kt iš Rytų
Matomumas: 7000 m
Išsisklaidę debesys ne aukštis 1000 ft
Su prošvaistėmis ne aukštis 3500 ft
Laikinai
nuo 24 metu 03 UTC su 24 metu 07 UTC
Su prošvaistėmis ne aukštis 300 ft

TAF: EYVI 232300Z 2400/2424 08010KT 7000 SCT010 BKN035 TEMPO 2403/2407 BKN003

Orai ataskaitas ir orų prognozės (METAR, TAF).

turimą stotys yra geltonos ir raudonos taškus žemėlapyje.

Perkelti pele per norėdami pamatyti stoties vardą.

Tada spustelėkite, norėdami matyti oro stebėjimo ir prognozės.

Norėdami pakeisti žemėlapį: spustelėkite ant žalios mygtukų su juodo kryžiaus žemyn,; žalią mygtuką su brūkšneliu, jei norite nutolinti; arba žalių rodyklių gretimoms žemėlapius.


METAR-TAF: